<?xml version="1.0" encoding="UTF-8" standalone="no" ?>
<gpx xmlns="http://www.topografix.com/GPX/1/1" creator="www.plotaroute.com" version="1.1"  xmlns:xsi="http://www.w3.org/2001/XMLSchema-instance" xsi:schemaLocation="http://www.topografix.com/GPX/1/1 http://www.topografix.com/GPX/1/1/gpx.xsd">
<metadata>
<desc>Route created on plotaroute.com</desc>
</metadata>
<wpt lat="53.561053" lon="9.9755859">
<time>2026-04-20T05:27:11Z</time>
<name>FINISH</name>
<cmt>FINISH</cmt>
<desc>FINISH</desc>
<sym>Flag, Blue</sym>
<type>Waypoint</type>
</wpt>
<trk>
<name>HMH26_Halbmarathon</name>
<trkseg>
<trkpt lat="53.5588936" lon="9.9934611">
<ele>6</ele>
<time>2026-04-20T00:00:00Z</time></trkpt>
<trkpt lat="53.558859" lon="9.9936908">
<ele>6</ele>
<time>2026-04-20T00:00:14Z</time></trkpt>
<trkpt lat="53.5588048" lon="9.9939242">
<ele>6</ele>
<time>2026-04-20T00:00:29Z</time></trkpt>
<trkpt lat="53.558714" lon="9.9943399">
<ele>6</ele>
<time>2026-04-20T00:00:55Z</time></trkpt>
<trkpt lat="53.5586231" lon="9.9947557">
<ele>6</ele>
<time>2026-04-20T00:01:21Z</time></trkpt>
<trkpt lat="53.5585467" lon="9.9949998">
<ele>6</ele>
<time>2026-04-20T00:01:39Z</time></trkpt>
<trkpt lat="53.5584686" lon="9.9952438">
<ele>6</ele>
<time>2026-04-20T00:01:57Z</time></trkpt>
<trkpt lat="53.5583873" lon="9.9955148">
<ele>7</ele>
<time>2026-04-20T00:02:17Z</time></trkpt>
<trkpt lat="53.5583045" lon="9.9958366">
<ele>7</ele>
<time>2026-04-20T00:02:39Z</time></trkpt>
<trkpt lat="53.5582216" lon="9.9961585">
<ele>7</ele>
<time>2026-04-20T00:03:01Z</time></trkpt>
<trkpt lat="53.5581388" lon="9.9964803">
<ele>8</ele>
<time>2026-04-20T00:03:21Z</time></trkpt>
<trkpt lat="53.558056" lon="9.9968022">
<ele>8</ele>
<time>2026-04-20T00:03:41Z</time></trkpt>
<trkpt lat="53.5579731" lon="9.9971241">
<ele>7</ele>
<time>2026-04-20T00:04:01Z</time></trkpt>
<trkpt lat="53.5578903" lon="9.9973843">
<ele>4</ele>
<time>2026-04-20T00:04:18Z</time></trkpt>
<trkpt lat="53.5578026" lon="9.9976793">
<ele>3</ele>
<time>2026-04-20T00:04:37Z</time></trkpt>
<trkpt lat="53.5575429" lon="9.9986717">
<ele>7</ele>
<time>2026-04-20T00:05:42Z</time></trkpt>
<trkpt lat="53.5574346" lon="9.9991089">
<ele>8</ele>
<time>2026-04-20T00:06:18Z</time></trkpt>
<trkpt lat="53.5573422" lon="9.9995407">
<ele>7</ele>
<time>2026-04-20T00:06:52Z</time></trkpt>
<trkpt lat="53.5573055" lon="9.9998331">
<ele>7</ele>
<time>2026-04-20T00:07:13Z</time></trkpt>
<trkpt lat="53.5572816" lon="10.0002488">
<ele>7</ele>
<time>2026-04-20T00:07:37Z</time></trkpt>
<trkpt lat="53.5572816" lon="10.0008041">
<ele>6</ele>
<time>2026-04-20T00:08:09Z</time></trkpt>
<trkpt lat="53.5572848" lon="10.0011313">
<ele>6</ele>
<time>2026-04-20T00:08:28Z</time></trkpt>
<trkpt lat="53.5573326" lon="10.0014907">
<ele>5</ele>
<time>2026-04-20T00:08:49Z</time></trkpt>
<trkpt lat="53.5573406" lon="10.0019279">
<ele>5</ele>
<time>2026-04-20T00:09:14Z</time></trkpt>
<trkpt lat="53.557347" lon="10.002408">
<ele>5</ele>
<time>2026-04-20T00:09:42Z</time></trkpt>
<trkpt lat="53.5573549" lon="10.0028855">
<ele>5</ele>
<time>2026-04-20T00:10:10Z</time></trkpt>
<trkpt lat="53.5573533" lon="10.0034139">
<ele>5</ele>
<time>2026-04-20T00:10:42Z</time></trkpt>
<trkpt lat="53.5574155" lon="10.0038591">
<ele>5</ele>
<time>2026-04-20T00:11:09Z</time></trkpt>
<trkpt lat="53.557535" lon="10.0042748">
<ele>5</ele>
<time>2026-04-20T00:11:35Z</time></trkpt>
<trkpt lat="53.5576832" lon="10.0047335">
<ele>4</ele>
<time>2026-04-20T00:12:06Z</time></trkpt>
<trkpt lat="53.5578712" lon="10.0051868">
<ele>4</ele>
<time>2026-04-20T00:12:39Z</time></trkpt>
<trkpt lat="53.5581054" lon="10.0058734">
<ele>4</ele>
<time>2026-04-20T00:13:31Z</time></trkpt>
<trkpt lat="53.5583572" lon="10.0066352">
<ele>5</ele>
<time>2026-04-20T00:14:23Z</time></trkpt>
<trkpt lat="53.558636" lon="10.0073728">
<ele>4</ele>
<time>2026-04-20T00:15:14Z</time></trkpt>
<trkpt lat="53.558926" lon="10.0081319">
<ele>4</ele>
<time>2026-04-20T00:16:07Z</time></trkpt>
<trkpt lat="53.5592303" lon="10.0088534">
<ele>4</ele>
<time>2026-04-20T00:17:00Z</time></trkpt>
<trkpt lat="53.559517" lon="10.0094193">
<ele>4</ele>
<time>2026-04-20T00:17:44Z</time></trkpt>
<trkpt lat="53.5597257" lon="10.0098941">
<ele>4</ele>
<time>2026-04-20T00:18:19Z</time></trkpt>
<trkpt lat="53.559893" lon="10.0103849">
<ele>4</ele>
<time>2026-04-20T00:18:53Z</time></trkpt>
<trkpt lat="53.5600571" lon="10.0109294">
<ele>5</ele>
<time>2026-04-20T00:19:31Z</time></trkpt>
<trkpt lat="53.5602212" lon="10.0115436">
<ele>5</ele>
<time>2026-04-20T00:20:15Z</time></trkpt>
<trkpt lat="53.5604028" lon="10.0121015">
<ele>5</ele>
<time>2026-04-20T00:20:54Z</time></trkpt>
<trkpt lat="53.5606147" lon="10.0125816">
<ele>5</ele>
<time>2026-04-20T00:21:30Z</time></trkpt>
<trkpt lat="53.560868" lon="10.0129867">
<ele>5</ele>
<time>2026-04-20T00:22:05Z</time></trkpt>
<trkpt lat="53.5611867" lon="10.0134507">
<ele>5</ele>
<time>2026-04-20T00:22:47Z</time></trkpt>
<trkpt lat="53.5615165" lon="10.0138986">
<ele>5</ele>
<time>2026-04-20T00:23:30Z</time></trkpt>
<trkpt lat="53.5618415" lon="10.0143358">
<ele>5</ele>
<time>2026-04-20T00:24:16Z</time></trkpt>
<trkpt lat="53.5621027" lon="10.0146067">
<ele>6</ele>
<time>2026-04-20T00:24:49Z</time></trkpt>
<trkpt lat="53.5622317" lon="10.0147596">
<ele>6</ele>
<time>2026-04-20T00:25:06Z</time></trkpt>
<trkpt lat="53.5624532" lon="10.0149474">
<ele>6</ele>
<time>2026-04-20T00:25:33Z</time></trkpt>
<trkpt lat="53.5627049" lon="10.0151834">
<ele>6</ele>
<time>2026-04-20T00:26:05Z</time></trkpt>
<trkpt lat="53.5629359" lon="10.0155535">
<ele>4</ele>
<time>2026-04-20T00:26:37Z</time></trkpt>
<trkpt lat="53.5631892" lon="10.015913">
<ele>4</ele>
<time>2026-04-20T00:27:09Z</time></trkpt>
<trkpt lat="53.5634775" lon="10.0162643">
<ele>6</ele>
<time>2026-04-20T00:27:44Z</time></trkpt>
<trkpt lat="53.5637707" lon="10.0165701">
<ele>6</ele>
<time>2026-04-20T00:28:19Z</time></trkpt>
<trkpt lat="53.5640399" lon="10.0167713">
<ele>6</ele>
<time>2026-04-20T00:28:48Z</time></trkpt>
<trkpt lat="53.5643394" lon="10.0168625">
<ele>6</ele>
<time>2026-04-20T00:29:21Z</time></trkpt>
<trkpt lat="53.5646564" lon="10.0168812">
<ele>6</ele>
<time>2026-04-20T00:29:55Z</time></trkpt>
<trkpt lat="53.5649638" lon="10.0169483">
<ele>7</ele>
<time>2026-04-20T00:30:29Z</time></trkpt>
<trkpt lat="53.5651932" lon="10.0169295">
<ele>6</ele>
<time>2026-04-20T00:30:50Z</time></trkpt>
<trkpt lat="53.5654959" lon="10.0168544">
<ele>3</ele>
<time>2026-04-20T00:31:19Z</time></trkpt>
<trkpt lat="53.565832" lon="10.0167954">
<ele>6</ele>
<time>2026-04-20T00:31:52Z</time></trkpt>
<trkpt lat="53.5661745" lon="10.0166988">
<ele>7</ele>
<time>2026-04-20T00:32:30Z</time></trkpt>
<trkpt lat="53.566517" lon="10.0166345">
<ele>6</ele>
<time>2026-04-20T00:33:08Z</time></trkpt>
<trkpt lat="53.5668658" lon="10.0165486">
<ele>5</ele>
<time>2026-04-20T00:33:42Z</time></trkpt>
<trkpt lat="53.5672274" lon="10.0164789">
<ele>5</ele>
<time>2026-04-20T00:34:18Z</time></trkpt>
<trkpt lat="53.5675906" lon="10.0163931">
<ele>5</ele>
<time>2026-04-20T00:34:54Z</time></trkpt>
<trkpt lat="53.5679554" lon="10.0163206">
<ele>5</ele>
<time>2026-04-20T00:35:31Z</time></trkpt>
<trkpt lat="53.5683202" lon="10.0162429">
<ele>5</ele>
<time>2026-04-20T00:36:08Z</time></trkpt>
<trkpt lat="53.5686706" lon="10.0160551">
<ele>5</ele>
<time>2026-04-20T00:36:44Z</time></trkpt>
<trkpt lat="53.5690354" lon="10.0157976">
<ele>5</ele>
<time>2026-04-20T00:37:24Z</time></trkpt>
<trkpt lat="53.5695324" lon="10.0154597">
<ele>5</ele>
<time>2026-04-20T00:38:18Z</time></trkpt>
<trkpt lat="53.5700277" lon="10.0151271">
<ele>5</ele>
<time>2026-04-20T00:39:11Z</time></trkpt>
<trkpt lat="53.5705231" lon="10.0147918">
<ele>4</ele>
<time>2026-04-20T00:40:04Z</time></trkpt>
<trkpt lat="53.5710184" lon="10.0144485">
<ele>4</ele>
<time>2026-04-20T00:40:56Z</time></trkpt>
<trkpt lat="53.5715138" lon="10.0141051">
<ele>5</ele>
<time>2026-04-20T00:41:53Z</time></trkpt>
<trkpt lat="53.5720091" lon="10.0137672">
<ele>5</ele>
<time>2026-04-20T00:42:50Z</time></trkpt>
<trkpt lat="53.5725045" lon="10.0134292">
<ele>6</ele>
<time>2026-04-20T00:43:44Z</time></trkpt>
<trkpt lat="53.5729998" lon="10.0130913">
<ele>5</ele>
<time>2026-04-20T00:44:37Z</time></trkpt>
<trkpt lat="53.5734951" lon="10.0127533">
<ele>5</ele>
<time>2026-04-20T00:45:31Z</time></trkpt>
<trkpt lat="53.5739904" lon="10.0124153">
<ele>4</ele>
<time>2026-04-20T00:46:23Z</time></trkpt>
<trkpt lat="53.5744857" lon="10.012072">
<ele>4</ele>
<time>2026-04-20T00:47:16Z</time></trkpt>
<trkpt lat="53.5749874" lon="10.0117233">
<ele>4</ele>
<time>2026-04-20T00:48:10Z</time></trkpt>
<trkpt lat="53.5756293" lon="10.0112808">
<ele>4</ele>
<time>2026-04-20T00:49:19Z</time></trkpt>
<trkpt lat="53.5762695" lon="10.0108463">
<ele>5</ele>
<time>2026-04-20T00:50:34Z</time></trkpt>
<trkpt lat="53.5769161" lon="10.0103983">
<ele>5</ele>
<time>2026-04-20T00:51:46Z</time></trkpt>
<trkpt lat="53.5772759" lon="10.0101703">
<ele>4</ele>
<time>2026-04-20T00:52:25Z</time></trkpt>
<trkpt lat="53.5776788" lon="10.0098753">
<ele>4</ele>
<time>2026-04-20T00:53:13Z</time></trkpt>
<trkpt lat="53.57812" lon="10.0095722">
<ele>5</ele>
<time>2026-04-20T00:54:02Z</time></trkpt>
<trkpt lat="53.5785643" lon="10.0092396">
<ele>5</ele>
<time>2026-04-20T00:54:50Z</time></trkpt>
<trkpt lat="53.5790149" lon="10.0088963">
<ele>4</ele>
<time>2026-04-20T00:55:38Z</time></trkpt>
<trkpt lat="53.579472" lon="10.008561">
<ele>4</ele>
<time>2026-04-20T00:56:27Z</time></trkpt>
<trkpt lat="53.579929" lon="10.0082177">
<ele>4</ele>
<time>2026-04-20T00:57:17Z</time></trkpt>
<trkpt lat="53.580386" lon="10.0078583">
<ele>4</ele>
<time>2026-04-20T00:58:07Z</time></trkpt>
<trkpt lat="53.5808446" lon="10.0075042">
<ele>4</ele>
<time>2026-04-20T00:58:58Z</time></trkpt>
<trkpt lat="53.5813048" lon="10.0071582">
<ele>4</ele>
<time>2026-04-20T00:59:48Z</time></trkpt>
<trkpt lat="53.581765" lon="10.0068149">
<ele>4</ele>
<time>2026-04-20T01:00:39Z</time></trkpt>
<trkpt lat="53.5822252" lon="10.0064716">
<ele>4</ele>
<time>2026-04-20T01:01:29Z</time></trkpt>
<trkpt lat="53.5826854" lon="10.0061283">
<ele>5</ele>
<time>2026-04-20T01:02:26Z</time></trkpt>
<trkpt lat="53.5831472" lon="10.0057715">
<ele>5</ele>
<time>2026-04-20T01:03:24Z</time></trkpt>
<trkpt lat="53.5836089" lon="10.0054121">
<ele>6</ele>
<time>2026-04-20T01:04:14Z</time></trkpt>
<trkpt lat="53.5840707" lon="10.0050527">
<ele>5</ele>
<time>2026-04-20T01:05:04Z</time></trkpt>
<trkpt lat="53.5845356" lon="10.004712">
<ele>5</ele>
<time>2026-04-20T01:05:55Z</time></trkpt>
<trkpt lat="53.5850006" lon="10.0043687">
<ele>5</ele>
<time>2026-04-20T01:06:46Z</time></trkpt>
<trkpt lat="53.5854671" lon="10.0040147">
<ele>5</ele>
<time>2026-04-20T01:07:37Z</time></trkpt>
<trkpt lat="53.5859336" lon="10.0036553">
<ele>5</ele>
<time>2026-04-20T01:08:28Z</time></trkpt>
<trkpt lat="53.5864001" lon="10.0032958">
<ele>5</ele>
<time>2026-04-20T01:09:20Z</time></trkpt>
<trkpt lat="53.5868666" lon="10.0029525">
<ele>5</ele>
<time>2026-04-20T01:10:10Z</time></trkpt>
<trkpt lat="53.5871389" lon="10.0027621">
<ele>4</ele>
<time>2026-04-20T01:10:39Z</time></trkpt>
<trkpt lat="53.5874955" lon="10.0031698">
<ele>4</ele>
<time>2026-04-20T01:11:21Z</time></trkpt>
<trkpt lat="53.5878506" lon="10.0035936">
<ele>4</ele>
<time>2026-04-20T01:12:05Z</time></trkpt>
<trkpt lat="53.5882056" lon="10.0040254">
<ele>5</ele>
<time>2026-04-20T01:12:50Z</time></trkpt>
<trkpt lat="53.5885575" lon="10.0044438">
<ele>5</ele>
<time>2026-04-20T01:13:41Z</time></trkpt>
<trkpt lat="53.5889093" lon="10.0048649">
<ele>7</ele>
<time>2026-04-20T01:14:32Z</time></trkpt>
<trkpt lat="53.5892723" lon="10.0052163">
<ele>8</ele>
<time>2026-04-20T01:15:21Z</time></trkpt>
<trkpt lat="53.5896449" lon="10.0054899">
<ele>9</ele>
<time>2026-04-20T01:16:11Z</time></trkpt>
<trkpt lat="53.5900286" lon="10.0057286">
<ele>10</ele>
<time>2026-04-20T01:17:03Z</time></trkpt>
<trkpt lat="53.5904154" lon="10.0059539">
<ele>11</ele>
<time>2026-04-20T01:17:51Z</time></trkpt>
<trkpt lat="53.5907959" lon="10.0062087">
<ele>11</ele>
<time>2026-04-20T01:18:36Z</time></trkpt>
<trkpt lat="53.5912019" lon="10.0064796">
<ele>12</ele>
<time>2026-04-20T01:19:21Z</time></trkpt>
<trkpt lat="53.5916652" lon="10.006772">
<ele>12</ele>
<time>2026-04-20T01:20:11Z</time></trkpt>
<trkpt lat="53.5921268" lon="10.0070697">
<ele>13</ele>
<time>2026-04-20T01:21:08Z</time></trkpt>
<trkpt lat="53.5925869" lon="10.0073728">
<ele>14</ele>
<time>2026-04-20T01:22:05Z</time></trkpt>
<trkpt lat="53.593047" lon="10.0076732">
<ele>15</ele>
<time>2026-04-20T01:22:59Z</time></trkpt>
<trkpt lat="53.5932348" lon="10.0078315">
<ele>15</ele>
<time>2026-04-20T01:23:22Z</time></trkpt>
<trkpt lat="53.5932666" lon="10.0080031">
<ele>15</ele>
<time>2026-04-20T01:23:33Z</time></trkpt>
<trkpt lat="53.593292" lon="10.008207">
<ele>15</ele>
<time>2026-04-20T01:23:47Z</time></trkpt>
<trkpt lat="53.5933175" lon="10.0084135">
<ele>16</ele>
<time>2026-04-20T01:24:00Z</time></trkpt>
<trkpt lat="53.5934417" lon="10.0097895">
<ele>17</ele>
<time>2026-04-20T01:25:34Z</time></trkpt>
<trkpt lat="53.5935372" lon="10.010857">
<ele>18</ele>
<time>2026-04-20T01:26:46Z</time></trkpt>
<trkpt lat="53.5935181" lon="10.0110903">
<ele>18</ele>
<time>2026-04-20T01:27:00Z</time></trkpt>
<trkpt lat="53.5934655" lon="10.0113559">
<ele>18</ele>
<time>2026-04-20T01:27:16Z</time></trkpt>
<trkpt lat="53.5933859" lon="10.0115731">
<ele>18</ele>
<time>2026-04-20T01:27:32Z</time></trkpt>
<trkpt lat="53.5932809" lon="10.0118119">
<ele>18</ele>
<time>2026-04-20T01:27:49Z</time></trkpt>
<trkpt lat="53.5930643" lon="10.0121257">
<ele>18</ele>
<time>2026-04-20T01:28:17Z</time></trkpt>
<trkpt lat="53.5928383" lon="10.0124502">
<ele>17</ele>
<time>2026-04-20T01:28:46Z</time></trkpt>
<trkpt lat="53.5925963" lon="10.012815">
<ele>17</ele>
<time>2026-04-20T01:29:17Z</time></trkpt>
<trkpt lat="53.592367" lon="10.0131905">
<ele>17</ele>
<time>2026-04-20T01:29:48Z</time></trkpt>
<trkpt lat="53.5922286" lon="10.013499">
<ele>17</ele>
<time>2026-04-20T01:30:11Z</time></trkpt>
<trkpt lat="53.5921203" lon="10.0138316">
<ele>16</ele>
<time>2026-04-20T01:30:34Z</time></trkpt>
<trkpt lat="53.5919675" lon="10.0146979">
<ele>16</ele>
<time>2026-04-20T01:31:32Z</time></trkpt>
<trkpt lat="53.5919086" lon="10.0156286">
<ele>16</ele>
<time>2026-04-20T01:32:27Z</time></trkpt>
<trkpt lat="53.5918433" lon="10.0161409">
<ele>15</ele>
<time>2026-04-20T01:32:56Z</time></trkpt>
<trkpt lat="53.5917319" lon="10.0179809">
<ele>13</ele>
<time>2026-04-20T01:34:42Z</time></trkpt>
<trkpt lat="53.5916714" lon="10.0193006">
<ele>12</ele>
<time>2026-04-20T01:35:56Z</time></trkpt>
<trkpt lat="53.5916396" lon="10.0206068">
<ele>10</ele>
<time>2026-04-20T01:37:10Z</time></trkpt>
<trkpt lat="53.5916252" lon="10.0214598">
<ele>10</ele>
<time>2026-04-20T01:37:59Z</time></trkpt>
<trkpt lat="53.5915106" lon="10.0225058">
<ele>8</ele>
<time>2026-04-20T01:39:00Z</time></trkpt>
<trkpt lat="53.591353" lon="10.0232273">
<ele>8</ele>
<time>2026-04-20T01:39:44Z</time></trkpt>
<trkpt lat="53.5912447" lon="10.0239274">
<ele>7</ele>
<time>2026-04-20T01:40:25Z</time></trkpt>
<trkpt lat="53.5912097" lon="10.0246757">
<ele>4</ele>
<time>2026-04-20T01:41:07Z</time></trkpt>
<trkpt lat="53.5911874" lon="10.0251049">
<ele>4</ele>
<time>2026-04-20T01:41:33Z</time></trkpt>
<trkpt lat="53.5911429" lon="10.0255716">
<ele>6</ele>
<time>2026-04-20T01:42:01Z</time></trkpt>
<trkpt lat="53.5909677" lon="10.0273257">
<ele>6</ele>
<time>2026-04-20T01:43:47Z</time></trkpt>
<trkpt lat="53.5909407" lon="10.0276986">
<ele>6</ele>
<time>2026-04-20T01:44:09Z</time></trkpt>
<trkpt lat="53.5909343" lon="10.0280875">
<ele>6</ele>
<time>2026-04-20T01:44:32Z</time></trkpt>
<trkpt lat="53.5909439" lon="10.028455">
<ele>6</ele>
<time>2026-04-20T01:44:54Z</time></trkpt>
<trkpt lat="53.5909773" lon="10.0288144">
<ele>6</ele>
<time>2026-04-20T01:45:16Z</time></trkpt>
<trkpt lat="53.5910362" lon="10.0291443">
<ele>6</ele>
<time>2026-04-20T01:45:36Z</time></trkpt>
<trkpt lat="53.5911126" lon="10.0294796">
<ele>7</ele>
<time>2026-04-20T01:45:58Z</time></trkpt>
<trkpt lat="53.5912289" lon="10.0298202">
<ele>6</ele>
<time>2026-04-20T01:46:22Z</time></trkpt>
<trkpt lat="53.5913626" lon="10.0301099">
<ele>6</ele>
<time>2026-04-20T01:46:45Z</time></trkpt>
<trkpt lat="53.5915202" lon="10.0302842">
<ele>6</ele>
<time>2026-04-20T01:47:06Z</time></trkpt>
<trkpt lat="53.5922957" lon="10.0308207">
<ele>7</ele>
<time>2026-04-20T01:48:32Z</time></trkpt>
<trkpt lat="53.592778" lon="10.0311533">
<ele>6</ele>
<time>2026-04-20T01:49:24Z</time></trkpt>
<trkpt lat="53.5931234" lon="10.0314376">
<ele>6</ele>
<time>2026-04-20T01:50:06Z</time></trkpt>
<trkpt lat="53.5936503" lon="10.032025">
<ele>8</ele>
<time>2026-04-20T01:51:15Z</time></trkpt>
<trkpt lat="53.5944639" lon="10.0318104">
<ele>8</ele>
<time>2026-04-20T01:52:40Z</time></trkpt>
<trkpt lat="53.5952614" lon="10.0316173">
<ele>7</ele>
<time>2026-04-20T01:54:03Z</time></trkpt>
<trkpt lat="53.5960573" lon="10.0314295">
<ele>8</ele>
<time>2026-04-20T01:55:26Z</time></trkpt>
<trkpt lat="53.5962147" lon="10.0314349">
<ele>8</ele>
<time>2026-04-20T01:55:41Z</time></trkpt>
<trkpt lat="53.5962306" lon="10.0317273">
<ele>7</ele>
<time>2026-04-20T01:55:58Z</time></trkpt>
<trkpt lat="53.5963134" lon="10.0321457">
<ele>7</ele>
<time>2026-04-20T01:56:26Z</time></trkpt>
<trkpt lat="53.5964248" lon="10.0325748">
<ele>7</ele>
<time>2026-04-20T01:56:56Z</time></trkpt>
<trkpt lat="53.5965363" lon="10.0330228">
<ele>8</ele>
<time>2026-04-20T01:57:28Z</time></trkpt>
<trkpt lat="53.5966477" lon="10.0334707">
<ele>7</ele>
<time>2026-04-20T01:57:56Z</time></trkpt>
<trkpt lat="53.5970171" lon="10.0350237">
<ele>7</ele>
<time>2026-04-20T01:59:38Z</time></trkpt>
<trkpt lat="53.59738" lon="10.036507">
<ele>8</ele>
<time>2026-04-20T02:01:17Z</time></trkpt>
<trkpt lat="53.5977493" lon="10.0379956">
<ele>10</ele>
<time>2026-04-20T02:03:05Z</time></trkpt>
<trkpt lat="53.5981154" lon="10.0394896">
<ele>12</ele>
<time>2026-04-20T02:04:58Z</time></trkpt>
<trkpt lat="53.5984767" lon="10.0409997">
<ele>14</ele>
<time>2026-04-20T02:06:50Z</time></trkpt>
<trkpt lat="53.5986279" lon="10.0417051">
<ele>15</ele>
<time>2026-04-20T02:07:39Z</time></trkpt>
<trkpt lat="53.5986373" lon="10.0417882">
<ele>15</ele>
<time>2026-04-20T02:07:44Z</time></trkpt>
<trkpt lat="53.5987393" lon="10.0417104">
<ele>15</ele>
<time>2026-04-20T02:07:56Z</time></trkpt>
<trkpt lat="53.5991803" lon="10.04141">
<ele>14</ele>
<time>2026-04-20T02:08:42Z</time></trkpt>
<trkpt lat="53.5994556" lon="10.0412866">
<ele>14</ele>
<time>2026-04-20T02:09:10Z</time></trkpt>
<trkpt lat="53.5997532" lon="10.0412169">
<ele>14</ele>
<time>2026-04-20T02:09:40Z</time></trkpt>
<trkpt lat="53.6001305" lon="10.0411499">
<ele>14</ele>
<time>2026-04-20T02:10:18Z</time></trkpt>
<trkpt lat="53.6006478" lon="10.0410613">
<ele>14</ele>
<time>2026-04-20T02:11:10Z</time></trkpt>
<trkpt lat="53.6011699" lon="10.0409889">
<ele>14</ele>
<time>2026-04-20T02:12:03Z</time></trkpt>
<trkpt lat="53.6016967" lon="10.0409058">
<ele>14</ele>
<time>2026-04-20T02:13:01Z</time></trkpt>
<trkpt lat="53.6022235" lon="10.0408226">
<ele>16</ele>
<time>2026-04-20T02:14:01Z</time></trkpt>
<trkpt lat="53.6024956" lon="10.040777">
<ele>16</ele>
<time>2026-04-20T02:14:34Z</time></trkpt>
<trkpt lat="53.6031658" lon="10.0405946">
<ele>17</ele>
<time>2026-04-20T02:15:49Z</time></trkpt>
<trkpt lat="53.603804" lon="10.0404337">
<ele>18</ele>
<time>2026-04-20T02:16:57Z</time></trkpt>
<trkpt lat="53.6044358" lon="10.0401977">
<ele>18</ele>
<time>2026-04-20T02:18:03Z</time></trkpt>
<trkpt lat="53.6050676" lon="10.0399455">
<ele>19</ele>
<time>2026-04-20T02:19:14Z</time></trkpt>
<trkpt lat="53.605674" lon="10.0396156">
<ele>19</ele>
<time>2026-04-20T02:20:18Z</time></trkpt>
<trkpt lat="53.6062867" lon="10.0392911">
<ele>18</ele>
<time>2026-04-20T02:21:21Z</time></trkpt>
<trkpt lat="53.6069217" lon="10.0390255">
<ele>18</ele>
<time>2026-04-20T02:22:25Z</time></trkpt>
<trkpt lat="53.6075582" lon="10.0387841">
<ele>18</ele>
<time>2026-04-20T02:23:31Z</time></trkpt>
<trkpt lat="53.6078557" lon="10.0387144">
<ele>18</ele>
<time>2026-04-20T02:24:01Z</time></trkpt>
<trkpt lat="53.6081915" lon="10.0383925">
<ele>18</ele>
<time>2026-04-20T02:24:40Z</time></trkpt>
<trkpt lat="53.6081819" lon="10.038017">
<ele>18</ele>
<time>2026-04-20T02:25:04Z</time></trkpt>
<trkpt lat="53.6081691" lon="10.0376362">
<ele>18</ele>
<time>2026-04-20T02:25:29Z</time></trkpt>
<trkpt lat="53.6081532" lon="10.0372553">
<ele>18</ele>
<time>2026-04-20T02:25:53Z</time></trkpt>
<trkpt lat="53.6081341" lon="10.0368798">
<ele>19</ele>
<time>2026-04-20T02:26:17Z</time></trkpt>
<trkpt lat="53.6079383" lon="10.0356594">
<ele>19</ele>
<time>2026-04-20T02:27:32Z</time></trkpt>
<trkpt lat="53.6077537" lon="10.0345355">
<ele>19</ele>
<time>2026-04-20T02:28:41Z</time></trkpt>
<trkpt lat="53.6075421" lon="10.0334036">
<ele>20</ele>
<time>2026-04-20T02:29:58Z</time></trkpt>
<trkpt lat="53.6073177" lon="10.0322771">
<ele>15</ele>
<time>2026-04-20T02:31:08Z</time></trkpt>
<trkpt lat="53.6070933" lon="10.0311506">
<ele>19</ele>
<time>2026-04-20T02:32:16Z</time></trkpt>
<trkpt lat="53.606861" lon="10.0300321">
<ele>17</ele>
<time>2026-04-20T02:33:24Z</time></trkpt>
<trkpt lat="53.606584" lon="10.0290665">
<ele>16</ele>
<time>2026-04-20T02:34:23Z</time></trkpt>
<trkpt lat="53.6064599" lon="10.0286588">
<ele>15</ele>
<time>2026-04-20T02:34:48Z</time></trkpt>
<trkpt lat="53.606253" lon="10.0280043">
<ele>13</ele>
<time>2026-04-20T02:35:29Z</time></trkpt>
<trkpt lat="53.6060367" lon="10.0273061">
<ele>15</ele>
<time>2026-04-20T02:36:20Z</time></trkpt>
<trkpt lat="53.605844" lon="10.0267088">
<ele>14</ele>
<time>2026-04-20T02:37:02Z</time></trkpt>
<trkpt lat="53.6056403" lon="10.026108">
<ele>12</ele>
<time>2026-04-20T02:37:39Z</time></trkpt>
<trkpt lat="53.6054987" lon="10.0256708">
<ele>11</ele>
<time>2026-04-20T02:38:06Z</time></trkpt>
<trkpt lat="53.6054446" lon="10.0254965">
<ele>11</ele>
<time>2026-04-20T02:38:18Z</time></trkpt>
<trkpt lat="53.6054351" lon="10.0252658">
<ele>11</ele>
<time>2026-04-20T02:38:32Z</time></trkpt>
<trkpt lat="53.605451" lon="10.0251237">
<ele>11</ele>
<time>2026-04-20T02:38:40Z</time></trkpt>
<trkpt lat="53.605494" lon="10.0250217">
<ele>11</ele>
<time>2026-04-20T02:38:48Z</time></trkpt>
<trkpt lat="53.6055561" lon="10.0249305">
<ele>11</ele>
<time>2026-04-20T02:38:56Z</time></trkpt>
<trkpt lat="53.6056309" lon="10.0248393">
<ele>11</ele>
<time>2026-04-20T02:39:05Z</time></trkpt>
<trkpt lat="53.6057057" lon="10.0247535">
<ele>11</ele>
<time>2026-04-20T02:39:14Z</time></trkpt>
<trkpt lat="53.6061227" lon="10.0245282">
<ele>11</ele>
<time>2026-04-20T02:40:01Z</time></trkpt>
<trkpt lat="53.6063614" lon="10.0243083">
<ele>11</ele>
<time>2026-04-20T02:40:31Z</time></trkpt>
<trkpt lat="53.606573" lon="10.0240213">
<ele>12</ele>
<time>2026-04-20T02:41:00Z</time></trkpt>
<trkpt lat="53.6067513" lon="10.0236565">
<ele>12</ele>
<time>2026-04-20T02:41:28Z</time></trkpt>
<trkpt lat="53.606861" lon="10.023281">
<ele>12</ele>
<time>2026-04-20T02:41:53Z</time></trkpt>
<trkpt lat="53.6069263" lon="10.0228545">
<ele>12</ele>
<time>2026-04-20T02:42:19Z</time></trkpt>
<trkpt lat="53.6069565" lon="10.0223932">
<ele>12</ele>
<time>2026-04-20T02:42:49Z</time></trkpt>
<trkpt lat="53.6069517" lon="10.0218138">
<ele>13</ele>
<time>2026-04-20T02:43:27Z</time></trkpt>
<trkpt lat="53.6069199" lon="10.0212532">
<ele>13</ele>
<time>2026-04-20T02:44:03Z</time></trkpt>
<trkpt lat="53.6068562" lon="10.0206631">
<ele>13</ele>
<time>2026-04-20T02:44:42Z</time></trkpt>
<trkpt lat="53.6067655" lon="10.0200275">
<ele>14</ele>
<time>2026-04-20T02:45:23Z</time></trkpt>
<trkpt lat="53.6066414" lon="10.019432">
<ele>14</ele>
<time>2026-04-20T02:46:01Z</time></trkpt>
<trkpt lat="53.6064902" lon="10.0189573">
<ele>14</ele>
<time>2026-04-20T02:46:33Z</time></trkpt>
<trkpt lat="53.6063199" lon="10.0185817">
<ele>14</ele>
<time>2026-04-20T02:47:01Z</time></trkpt>
<trkpt lat="53.6061735" lon="10.018402">
<ele>14</ele>
<time>2026-04-20T02:47:19Z</time></trkpt>
<trkpt lat="53.6060271" lon="10.0182679">
<ele>14</ele>
<time>2026-04-20T02:47:36Z</time></trkpt>
<trkpt lat="53.6058456" lon="10.0181875">
<ele>14</ele>
<time>2026-04-20T02:47:55Z</time></trkpt>
<trkpt lat="53.6056228" lon="10.0181445">
<ele>14</ele>
<time>2026-04-20T02:48:17Z</time></trkpt>
<trkpt lat="53.6054" lon="10.0181016">
<ele>14</ele>
<time>2026-04-20T02:48:40Z</time></trkpt>
<trkpt lat="53.6052186" lon="10.0179514">
<ele>14</ele>
<time>2026-04-20T02:49:00Z</time></trkpt>
<trkpt lat="53.6051818" lon="10.0174731">
<ele>14</ele>
<time>2026-04-20T02:49:28Z</time></trkpt>
<trkpt lat="53.60522" lon="10.0169796">
<ele>14</ele>
<time>2026-04-20T02:49:58Z</time></trkpt>
<trkpt lat="53.6052688" lon="10.0167042">
<ele>14</ele>
<time>2026-04-20T02:50:15Z</time></trkpt>
<trkpt lat="53.6052656" lon="10.0164038">
<ele>14</ele>
<time>2026-04-20T02:50:33Z</time></trkpt>
<trkpt lat="53.6052338" lon="10.0158459">
<ele>14</ele>
<time>2026-04-20T02:51:06Z</time></trkpt>
<trkpt lat="53.6051701" lon="10.0150037">
<ele>14</ele>
<time>2026-04-20T02:51:57Z</time></trkpt>
<trkpt lat="53.605116" lon="10.0141561">
<ele>14</ele>
<time>2026-04-20T02:52:47Z</time></trkpt>
<trkpt lat="53.6050619" lon="10.0133085">
<ele>13</ele>
<time>2026-04-20T02:53:38Z</time></trkpt>
<trkpt lat="53.60503" lon="10.0127774">
<ele>13</ele>
<time>2026-04-20T02:54:08Z</time></trkpt>
<trkpt lat="53.6055522" lon="10.012697">
<ele>13</ele>
<time>2026-04-20T02:54:59Z</time></trkpt>
<trkpt lat="53.6060933" lon="10.0126004">
<ele>12</ele>
<time>2026-04-20T02:55:52Z</time></trkpt>
<trkpt lat="53.6066439" lon="10.0124931">
<ele>12</ele>
<time>2026-04-20T02:56:46Z</time></trkpt>
<trkpt lat="53.6072009" lon="10.0123751">
<ele>11</ele>
<time>2026-04-20T02:57:41Z</time></trkpt>
<trkpt lat="53.607777" lon="10.0122571">
<ele>11</ele>
<time>2026-04-20T02:58:39Z</time></trkpt>
<trkpt lat="53.6083595" lon="10.0121552">
<ele>10</ele>
<time>2026-04-20T02:59:36Z</time></trkpt>
<trkpt lat="53.6089451" lon="10.0120479">
<ele>10</ele>
<time>2026-04-20T03:00:35Z</time></trkpt>
<trkpt lat="53.609311" lon="10.0119621">
<ele>10</ele>
<time>2026-04-20T03:01:12Z</time></trkpt>
<trkpt lat="53.61011" lon="10.0116724">
<ele>9</ele>
<time>2026-04-20T03:02:31Z</time></trkpt>
<trkpt lat="53.6099888" lon="10.0114202">
<ele>9</ele>
<time>2026-04-20T03:02:50Z</time></trkpt>
<trkpt lat="53.6099347" lon="10.0111628">
<ele>9</ele>
<time>2026-04-20T03:03:07Z</time></trkpt>
<trkpt lat="53.6098711" lon="10.010857">
<ele>9</ele>
<time>2026-04-20T03:03:26Z</time></trkpt>
<trkpt lat="53.6098329" lon="10.0105458">
<ele>9</ele>
<time>2026-04-20T03:03:45Z</time></trkpt>
<trkpt lat="53.6098074" lon="10.010224">
<ele>9</ele>
<time>2026-04-20T03:04:04Z</time></trkpt>
<trkpt lat="53.6097692" lon="10.0099021">
<ele>9</ele>
<time>2026-04-20T03:04:24Z</time></trkpt>
<trkpt lat="53.6093681" lon="10.0072414">
<ele>9</ele>
<time>2026-04-20T03:07:06Z</time></trkpt>
<trkpt lat="53.6092886" lon="10.0066459">
<ele>8</ele>
<time>2026-04-20T03:07:41Z</time></trkpt>
<trkpt lat="53.6092759" lon="10.0053155">
<ele>7</ele>
<time>2026-04-20T03:08:58Z</time></trkpt>
<trkpt lat="53.6092345" lon="10.0046879">
<ele>7</ele>
<time>2026-04-20T03:09:35Z</time></trkpt>
<trkpt lat="53.6091136" lon="10.0039959">
<ele>7</ele>
<time>2026-04-20T03:10:18Z</time></trkpt>
<trkpt lat="53.6089162" lon="10.0033575">
<ele>7</ele>
<time>2026-04-20T03:11:01Z</time></trkpt>
<trkpt lat="53.6083878" lon="10.0020379">
<ele>7</ele>
<time>2026-04-20T03:12:35Z</time></trkpt>
<trkpt lat="53.6080569" lon="10.0013942">
<ele>7</ele>
<time>2026-04-20T03:13:26Z</time></trkpt>
<trkpt lat="53.6076399" lon="10.00067">
<ele>7</ele>
<time>2026-04-20T03:14:26Z</time></trkpt>
<trkpt lat="53.6071593" lon="9.9999726">
<ele>7</ele>
<time>2026-04-20T03:15:29Z</time></trkpt>
<trkpt lat="53.60658" lon="9.9992698">
<ele>7</ele>
<time>2026-04-20T03:16:41Z</time></trkpt>
<trkpt lat="53.6061408" lon="9.9988031">
<ele>7</ele>
<time>2026-04-20T03:17:33Z</time></trkpt>
<trkpt lat="53.6058225" lon="9.9984705">
<ele>7</ele>
<time>2026-04-20T03:18:10Z</time></trkpt>
<trkpt lat="53.605501" lon="9.998095">
<ele>7</ele>
<time>2026-04-20T03:18:50Z</time></trkpt>
<trkpt lat="53.6052019" lon="9.9977571">
<ele>7</ele>
<time>2026-04-20T03:19:26Z</time></trkpt>
<trkpt lat="53.6050332" lon="9.9975103">
<ele>7</ele>
<time>2026-04-20T03:19:48Z</time></trkpt>
<trkpt lat="53.604839" lon="9.997344">
<ele>7</ele>
<time>2026-04-20T03:20:10Z</time></trkpt>
<trkpt lat="53.6047054" lon="9.9972475">
<ele>6</ele>
<time>2026-04-20T03:20:24Z</time></trkpt>
<trkpt lat="53.6037852" lon="9.9963087">
<ele>6</ele>
<time>2026-04-20T03:22:10Z</time></trkpt>
<trkpt lat="53.6028982" lon="9.9953717">
<ele>6</ele>
<time>2026-04-20T03:23:55Z</time></trkpt>
<trkpt lat="53.6023116" lon="9.994812">
<ele>6</ele>
<time>2026-04-20T03:25:02Z</time></trkpt>
<trkpt lat="53.6017418" lon="9.9944365">
<ele>7</ele>
<time>2026-04-20T03:26:03Z</time></trkpt>
<trkpt lat="53.6013312" lon="9.9942005">
<ele>6</ele>
<time>2026-04-20T03:26:47Z</time></trkpt>
<trkpt lat="53.6007327" lon="9.9939805">
<ele>6</ele>
<time>2026-04-20T03:27:48Z</time></trkpt>
<trkpt lat="53.6002297" lon="9.9939215">
<ele>6</ele>
<time>2026-04-20T03:28:39Z</time></trkpt>
<trkpt lat="53.5997268" lon="9.9938786">
<ele>6</ele>
<time>2026-04-20T03:29:29Z</time></trkpt>
<trkpt lat="53.5992238" lon="9.9938679">
<ele>6</ele>
<time>2026-04-20T03:30:20Z</time></trkpt>
<trkpt lat="53.5988705" lon="9.9938893">
<ele>6</ele>
<time>2026-04-20T03:30:55Z</time></trkpt>
<trkpt lat="53.5980777" lon="9.9941629">
<ele>6</ele>
<time>2026-04-20T03:32:16Z</time></trkpt>
<trkpt lat="53.5972595" lon="9.9944365">
<ele>6</ele>
<time>2026-04-20T03:33:40Z</time></trkpt>
<trkpt lat="53.5960496" lon="9.9948388">
<ele>6</ele>
<time>2026-04-20T03:35:43Z</time></trkpt>
<trkpt lat="53.5946264" lon="9.9953055">
<ele>5</ele>
<time>2026-04-20T03:38:07Z</time></trkpt>
<trkpt lat="53.5942575" lon="9.9955308">
<ele>5</ele>
<time>2026-04-20T03:38:45Z</time></trkpt>
<trkpt lat="53.5941142" lon="9.9955362">
<ele>5</ele>
<time>2026-04-20T03:39:00Z</time></trkpt>
<trkpt lat="53.5939869" lon="9.9955684">
<ele>5</ele>
<time>2026-04-20T03:39:13Z</time></trkpt>
<trkpt lat="53.5938627" lon="9.995563">
<ele>5</ele>
<time>2026-04-20T03:39:25Z</time></trkpt>
<trkpt lat="53.5933946" lon="9.9943185">
<ele>6</ele>
<time>2026-04-20T03:40:51Z</time></trkpt>
<trkpt lat="53.5931272" lon="9.9936855">
<ele>3</ele>
<time>2026-04-20T03:41:38Z</time></trkpt>
<trkpt lat="53.5929871" lon="9.9933207">
<ele>5</ele>
<time>2026-04-20T03:42:08Z</time></trkpt>
<trkpt lat="53.5929044" lon="9.9930418">
<ele>6</ele>
<time>2026-04-20T03:42:30Z</time></trkpt>
<trkpt lat="53.5927897" lon="9.9928164">
<ele>6</ele>
<time>2026-04-20T03:42:51Z</time></trkpt>
<trkpt lat="53.5927006" lon="9.9924839">
<ele>5</ele>
<time>2026-04-20T03:43:14Z</time></trkpt>
<trkpt lat="53.5927197" lon="9.9921781">
<ele>5</ele>
<time>2026-04-20T03:43:32Z</time></trkpt>
<trkpt lat="53.5928535" lon="9.9917704">
<ele>5</ele>
<time>2026-04-20T03:43:59Z</time></trkpt>
<trkpt lat="53.5929522" lon="9.9915236">
<ele>5</ele>
<time>2026-04-20T03:44:16Z</time></trkpt>
<trkpt lat="53.592984" lon="9.9911159">
<ele>6</ele>
<time>2026-04-20T03:44:40Z</time></trkpt>
<trkpt lat="53.5930923" lon="9.9907136">
<ele>5</ele>
<time>2026-04-20T03:45:06Z</time></trkpt>
<trkpt lat="53.5931209" lon="9.9903166">
<ele>5</ele>
<time>2026-04-20T03:45:30Z</time></trkpt>
<trkpt lat="53.5931304" lon="9.9895495">
<ele>5</ele>
<time>2026-04-20T03:46:16Z</time></trkpt>
<trkpt lat="53.5930763" lon="9.9892974">
<ele>5</ele>
<time>2026-04-20T03:46:32Z</time></trkpt>
<trkpt lat="53.5929617" lon="9.9891365">
<ele>5</ele>
<time>2026-04-20T03:46:47Z</time></trkpt>
<trkpt lat="53.5926878" lon="9.9888361">
<ele>5</ele>
<time>2026-04-20T03:47:21Z</time></trkpt>
<trkpt lat="53.592465" lon="9.9885678">
<ele>6</ele>
<time>2026-04-20T03:47:51Z</time></trkpt>
<trkpt lat="53.5917707" lon="9.9881387">
<ele>6</ele>
<time>2026-04-20T03:49:08Z</time></trkpt>
<trkpt lat="53.5910172" lon="9.9877059">
<ele>6</ele>
<time>2026-04-20T03:50:28Z</time></trkpt>
<trkpt lat="53.590736" lon="9.987511">
<ele>6</ele>
<time>2026-04-20T03:50:58Z</time></trkpt>
<trkpt lat="53.5902393" lon="9.9872535">
<ele>6</ele>
<time>2026-04-20T03:51:50Z</time></trkpt>
<trkpt lat="53.589733" lon="9.9870175">
<ele>6</ele>
<time>2026-04-20T03:52:43Z</time></trkpt>
<trkpt lat="53.5892681" lon="9.98676">
<ele>6</ele>
<time>2026-04-20T03:53:32Z</time></trkpt>
<trkpt lat="53.588902" lon="9.9864918">
<ele>6</ele>
<time>2026-04-20T03:54:12Z</time></trkpt>
<trkpt lat="53.58866" lon="9.9862343">
<ele>6</ele>
<time>2026-04-20T03:54:41Z</time></trkpt>
<trkpt lat="53.5883161" lon="9.9857783">
<ele>6</ele>
<time>2026-04-20T03:55:25Z</time></trkpt>
<trkpt lat="53.5879371" lon="9.9853331">
<ele>6</ele>
<time>2026-04-20T03:56:11Z</time></trkpt>
<trkpt lat="53.5871792" lon="9.9843997">
<ele>6</ele>
<time>2026-04-20T03:57:45Z</time></trkpt>
<trkpt lat="53.5864659" lon="9.9835092">
<ele>5</ele>
<time>2026-04-20T03:59:12Z</time></trkpt>
<trkpt lat="53.5857367" lon="9.9826562">
<ele>5</ele>
<time>2026-04-20T04:00:40Z</time></trkpt>
<trkpt lat="53.5855394" lon="9.9824899">
<ele>5</ele>
<time>2026-04-20T04:01:02Z</time></trkpt>
<trkpt lat="53.5853802" lon="9.9822056">
<ele>5</ele>
<time>2026-04-20T04:01:26Z</time></trkpt>
<trkpt lat="53.5852623" lon="9.9820071">
<ele>5</ele>
<time>2026-04-20T04:01:42Z</time></trkpt>
<trkpt lat="53.5852178" lon="9.9818462">
<ele>5</ele>
<time>2026-04-20T04:01:53Z</time></trkpt>
<trkpt lat="53.585084" lon="9.981814">
<ele>5</ele>
<time>2026-04-20T04:02:06Z</time></trkpt>
<trkpt lat="53.5849057" lon="9.9818462">
<ele>5</ele>
<time>2026-04-20T04:02:24Z</time></trkpt>
<trkpt lat="53.5846764" lon="9.9819052">
<ele>5</ele>
<time>2026-04-20T04:02:48Z</time></trkpt>
<trkpt lat="53.5845458" lon="9.9820554">
<ele>5</ele>
<time>2026-04-20T04:03:04Z</time></trkpt>
<trkpt lat="53.5837941" lon="9.9837881">
<ele>6</ele>
<time>2026-04-20T04:05:18Z</time></trkpt>
<trkpt lat="53.5832496" lon="9.9849844">
<ele>7</ele>
<time>2026-04-20T04:06:48Z</time></trkpt>
<trkpt lat="53.5826318" lon="9.9864435">
<ele>7</ele>
<time>2026-04-20T04:08:40Z</time></trkpt>
<trkpt lat="53.582135" lon="9.9875969">
<ele>8</ele>
<time>2026-04-20T04:10:12Z</time></trkpt>
<trkpt lat="53.5819504" lon="9.9879456">
<ele>9</ele>
<time>2026-04-20T04:10:44Z</time></trkpt>
<trkpt lat="53.5818294" lon="9.9878865">
<ele>9</ele>
<time>2026-04-20T04:10:59Z</time></trkpt>
<trkpt lat="53.581702" lon="9.9878651">
<ele>9</ele>
<time>2026-04-20T04:11:14Z</time></trkpt>
<trkpt lat="53.5815523" lon="9.9879241">
<ele>9</ele>
<time>2026-04-20T04:11:32Z</time></trkpt>
<trkpt lat="53.5814153" lon="9.9880636">
<ele>10</ele>
<time>2026-04-20T04:11:51Z</time></trkpt>
<trkpt lat="53.5813134" lon="9.9883157">
<ele>10</ele>
<time>2026-04-20T04:12:10Z</time></trkpt>
<trkpt lat="53.5812816" lon="9.9885625">
<ele>10</ele>
<time>2026-04-20T04:12:25Z</time></trkpt>
<trkpt lat="53.5813424" lon="9.988938">
<ele>10</ele>
<time>2026-04-20T04:12:47Z</time></trkpt>
<trkpt lat="53.5813772" lon="9.9890667">
<ele>9</ele>
<time>2026-04-20T04:12:56Z</time></trkpt>
<trkpt lat="53.5812784" lon="9.9893296">
<ele>9</ele>
<time>2026-04-20T04:13:13Z</time></trkpt>
<trkpt lat="53.5811861" lon="9.9895495">
<ele>9</ele>
<time>2026-04-20T04:13:30Z</time></trkpt>
<trkpt lat="53.5807719" lon="9.9902523">
<ele>9</ele>
<time>2026-04-20T04:14:34Z</time></trkpt>
<trkpt lat="53.5806128" lon="9.9906868">
<ele>10</ele>
<time>2026-04-20T04:15:06Z</time></trkpt>
<trkpt lat="53.5805045" lon="9.9911803">
<ele>10</ele>
<time>2026-04-20T04:15:37Z</time></trkpt>
<trkpt lat="53.5803389" lon="9.991765">
<ele>10</ele>
<time>2026-04-20T04:16:16Z</time></trkpt>
<trkpt lat="53.5801" lon="9.9925858">
<ele>11</ele>
<time>2026-04-20T04:17:15Z</time></trkpt>
<trkpt lat="53.5798675" lon="9.9934226">
<ele>10</ele>
<time>2026-04-20T04:18:15Z</time></trkpt>
<trkpt lat="53.5797338" lon="9.9937874">
<ele>11</ele>
<time>2026-04-20T04:18:43Z</time></trkpt>
<trkpt lat="53.5796382" lon="9.9938142">
<ele>11</ele>
<time>2026-04-20T04:18:53Z</time></trkpt>
<trkpt lat="53.579565" lon="9.9939269">
<ele>12</ele>
<time>2026-04-20T04:19:04Z</time></trkpt>
<trkpt lat="53.5795969" lon="9.9940932">
<ele>11</ele>
<time>2026-04-20T04:19:14Z</time></trkpt>
<trkpt lat="53.5795268" lon="9.9944311">
<ele>12</ele>
<time>2026-04-20T04:19:33Z</time></trkpt>
<trkpt lat="53.579444" lon="9.9947906">
<ele>10</ele>
<time>2026-04-20T04:19:54Z</time></trkpt>
<trkpt lat="53.5793611" lon="9.9952573">
<ele>9</ele>
<time>2026-04-20T04:20:20Z</time></trkpt>
<trkpt lat="53.5792401" lon="9.9957025">
<ele>8</ele>
<time>2026-04-20T04:20:49Z</time></trkpt>
<trkpt lat="53.5790617" lon="9.9961102">
<ele>8</ele>
<time>2026-04-20T04:21:18Z</time></trkpt>
<trkpt lat="53.5788452" lon="9.9965394">
<ele>8</ele>
<time>2026-04-20T04:21:51Z</time></trkpt>
<trkpt lat="53.5786158" lon="9.9969471">
<ele>8</ele>
<time>2026-04-20T04:22:24Z</time></trkpt>
<trkpt lat="53.5785044" lon="9.9972099">
<ele>7</ele>
<time>2026-04-20T04:22:43Z</time></trkpt>
<trkpt lat="53.5784216" lon="9.997285">
<ele>8</ele>
<time>2026-04-20T04:22:53Z</time></trkpt>
<trkpt lat="53.5783675" lon="9.9974084">
<ele>8</ele>
<time>2026-04-20T04:23:02Z</time></trkpt>
<trkpt lat="53.5782623" lon="9.9976015">
<ele>8</ele>
<time>2026-04-20T04:23:16Z</time></trkpt>
<trkpt lat="53.5781222" lon="9.9979234">
<ele>7</ele>
<time>2026-04-20T04:23:39Z</time></trkpt>
<trkpt lat="53.5779884" lon="9.9985778">
<ele>6</ele>
<time>2026-04-20T04:24:17Z</time></trkpt>
<trkpt lat="53.5778801" lon="9.9990445">
<ele>5</ele>
<time>2026-04-20T04:24:46Z</time></trkpt>
<trkpt lat="53.5776858" lon="9.9994308">
<ele>5</ele>
<time>2026-04-20T04:25:16Z</time></trkpt>
<trkpt lat="53.5775043" lon="9.9995917">
<ele>5</ele>
<time>2026-04-20T04:25:36Z</time></trkpt>
<trkpt lat="53.5773132" lon="9.9997044">
<ele>5</ele>
<time>2026-04-20T04:25:56Z</time></trkpt>
<trkpt lat="53.577138" lon="9.9997687">
<ele>5</ele>
<time>2026-04-20T04:26:14Z</time></trkpt>
<trkpt lat="53.5769469" lon="9.9997687">
<ele>5</ele>
<time>2026-04-20T04:26:33Z</time></trkpt>
<trkpt lat="53.5767494" lon="9.999758">
<ele>5</ele>
<time>2026-04-20T04:26:53Z</time></trkpt>
<trkpt lat="53.5765392" lon="9.9997312">
<ele>5</ele>
<time>2026-04-20T04:27:14Z</time></trkpt>
<trkpt lat="53.5763608" lon="9.9996561">
<ele>5</ele>
<time>2026-04-20T04:27:32Z</time></trkpt>
<trkpt lat="53.5761697" lon="9.9995971">
<ele>5</ele>
<time>2026-04-20T04:27:52Z</time></trkpt>
<trkpt lat="53.5759754" lon="9.9995166">
<ele>5</ele>
<time>2026-04-20T04:28:12Z</time></trkpt>
<trkpt lat="53.5756983" lon="9.9995005">
<ele>5</ele>
<time>2026-04-20T04:28:39Z</time></trkpt>
<trkpt lat="53.5754276" lon="9.9994683">
<ele>5</ele>
<time>2026-04-20T04:29:05Z</time></trkpt>
<trkpt lat="53.5751568" lon="9.9994361">
<ele>5</ele>
<time>2026-04-20T04:29:32Z</time></trkpt>
<trkpt lat="53.5748861" lon="9.9993825">
<ele>4</ele>
<time>2026-04-20T04:30:01Z</time></trkpt>
<trkpt lat="53.5746185" lon="9.9993449">
<ele>4</ele>
<time>2026-04-20T04:30:30Z</time></trkpt>
<trkpt lat="53.5743509" lon="9.9993074">
<ele>4</ele>
<time>2026-04-20T04:31:00Z</time></trkpt>
<trkpt lat="53.5740898" lon="9.9992913">
<ele>5</ele>
<time>2026-04-20T04:31:26Z</time></trkpt>
<trkpt lat="53.5738349" lon="9.9993074">
<ele>5</ele>
<time>2026-04-20T04:31:52Z</time></trkpt>
<trkpt lat="53.5735674" lon="9.9993503">
<ele>5</ele>
<time>2026-04-20T04:32:18Z</time></trkpt>
<trkpt lat="53.5732998" lon="9.9993986">
<ele>5</ele>
<time>2026-04-20T04:32:45Z</time></trkpt>
<trkpt lat="53.5730035" lon="9.9994951">
<ele>5</ele>
<time>2026-04-20T04:33:16Z</time></trkpt>
<trkpt lat="53.5726977" lon="9.9995971">
<ele>5</ele>
<time>2026-04-20T04:33:47Z</time></trkpt>
<trkpt lat="53.5723792" lon="9.9996883">
<ele>5</ele>
<time>2026-04-20T04:34:19Z</time></trkpt>
<trkpt lat="53.5720033" lon="9.9998009">
<ele>5</ele>
<time>2026-04-20T04:34:57Z</time></trkpt>
<trkpt lat="53.5716274" lon="9.9999136">
<ele>5</ele>
<time>2026-04-20T04:35:36Z</time></trkpt>
<trkpt lat="53.5712515" lon="10.0000262">
<ele>5</ele>
<time>2026-04-20T04:36:14Z</time></trkpt>
<trkpt lat="53.570882" lon="10.0001389">
<ele>4</ele>
<time>2026-04-20T04:36:52Z</time></trkpt>
<trkpt lat="53.5705157" lon="10.0002569">
<ele>5</ele>
<time>2026-04-20T04:37:29Z</time></trkpt>
<trkpt lat="53.5701398" lon="10.0003642">
<ele>5</ele>
<time>2026-04-20T04:38:07Z</time></trkpt>
<trkpt lat="53.5697639" lon="10.0004768">
<ele>5</ele>
<time>2026-04-20T04:38:45Z</time></trkpt>
<trkpt lat="53.569388" lon="10.0005949">
<ele>5</ele>
<time>2026-04-20T04:39:24Z</time></trkpt>
<trkpt lat="53.5690121" lon="10.0007129">
<ele>5</ele>
<time>2026-04-20T04:40:02Z</time></trkpt>
<trkpt lat="53.5686234" lon="10.0008148">
<ele>5</ele>
<time>2026-04-20T04:40:41Z</time></trkpt>
<trkpt lat="53.5680206" lon="10.0010061">
<ele>5</ele>
<time>2026-04-20T04:41:43Z</time></trkpt>
<trkpt lat="53.5673277" lon="10.0012118">
<ele>5</ele>
<time>2026-04-20T04:42:53Z</time></trkpt>
<trkpt lat="53.5672273" lon="10.0003293">
<ele>6</ele>
<time>2026-04-20T04:43:53Z</time></trkpt>
<trkpt lat="53.5670669" lon="9.9987289">
<ele>8</ele>
<time>2026-04-20T04:45:42Z</time></trkpt>
<trkpt lat="53.5670298" lon="9.9982989">
<ele>7</ele>
<time>2026-04-20T04:46:10Z</time></trkpt>
<trkpt lat="53.56699" lon="9.9978697">
<ele>7</ele>
<time>2026-04-20T04:46:36Z</time></trkpt>
<trkpt lat="53.5669454" lon="9.9974567">
<ele>7</ele>
<time>2026-04-20T04:47:00Z</time></trkpt>
<trkpt lat="53.5668976" lon="9.9970677">
<ele>7</ele>
<time>2026-04-20T04:47:23Z</time></trkpt>
<trkpt lat="53.5668498" lon="9.9966788">
<ele>7</ele>
<time>2026-04-20T04:47:46Z</time></trkpt>
<trkpt lat="53.566802" lon="9.9962926">
<ele>7</ele>
<time>2026-04-20T04:48:10Z</time></trkpt>
<trkpt lat="53.5667765" lon="9.9959117">
<ele>7</ele>
<time>2026-04-20T04:48:33Z</time></trkpt>
<trkpt lat="53.5666268" lon="9.9958849">
<ele>7</ele>
<time>2026-04-20T04:48:48Z</time></trkpt>
<trkpt lat="53.5664898" lon="9.9957615">
<ele>7</ele>
<time>2026-04-20T04:49:03Z</time></trkpt>
<trkpt lat="53.5660724" lon="9.995445">
<ele>7</ele>
<time>2026-04-20T04:49:47Z</time></trkpt>
<trkpt lat="53.5655785" lon="9.9950856">
<ele>6</ele>
<time>2026-04-20T04:50:41Z</time></trkpt>
<trkpt lat="53.5650433" lon="9.9946538">
<ele>6</ele>
<time>2026-04-20T04:51:40Z</time></trkpt>
<trkpt lat="53.5648219" lon="9.9945143">
<ele>6</ele>
<time>2026-04-20T04:52:04Z</time></trkpt>
<trkpt lat="53.5645862" lon="9.9944472">
<ele>6</ele>
<time>2026-04-20T04:52:28Z</time></trkpt>
<trkpt lat="53.5642978" lon="9.9944311">
<ele>7</ele>
<time>2026-04-20T04:52:57Z</time></trkpt>
<trkpt lat="53.5640095" lon="9.994415">
<ele>7</ele>
<time>2026-04-20T04:53:28Z</time></trkpt>
<trkpt lat="53.5637195" lon="9.994399">
<ele>7</ele>
<time>2026-04-20T04:54:00Z</time></trkpt>
<trkpt lat="53.5634264" lon="9.9943909">
<ele>8</ele>
<time>2026-04-20T04:54:32Z</time></trkpt>
<trkpt lat="53.563146" lon="9.9943587">
<ele>8</ele>
<time>2026-04-20T04:55:02Z</time></trkpt>
<trkpt lat="53.5629613" lon="9.9942487">
<ele>8</ele>
<time>2026-04-20T04:55:24Z</time></trkpt>
<trkpt lat="53.5627988" lon="9.9940985">
<ele>8</ele>
<time>2026-04-20T04:55:44Z</time></trkpt>
<trkpt lat="53.5626411" lon="9.9939027">
<ele>8</ele>
<time>2026-04-20T04:56:05Z</time></trkpt>
<trkpt lat="53.5624626" lon="9.9936238">
<ele>9</ele>
<time>2026-04-20T04:56:32Z</time></trkpt>
<trkpt lat="53.5622746" lon="9.9933529">
<ele>9</ele>
<time>2026-04-20T04:56:59Z</time></trkpt>
<trkpt lat="53.5619464" lon="9.9928486">
<ele>9</ele>
<time>2026-04-20T04:57:45Z</time></trkpt>
<trkpt lat="53.5616182" lon="9.9923605">
<ele>9</ele>
<time>2026-04-20T04:58:29Z</time></trkpt>
<trkpt lat="53.561298" lon="9.991883">
<ele>9</ele>
<time>2026-04-20T04:59:12Z</time></trkpt>
<trkpt lat="53.5609858" lon="9.9914351">
<ele>9</ele>
<time>2026-04-20T04:59:53Z</time></trkpt>
<trkpt lat="53.5608807" lon="9.9912849">
<ele>9</ele>
<time>2026-04-20T05:00:06Z</time></trkpt>
<trkpt lat="53.5606831" lon="9.991065">
<ele>9</ele>
<time>2026-04-20T05:00:29Z</time></trkpt>
<trkpt lat="53.5604935" lon="9.990786">
<ele>9</ele>
<time>2026-04-20T05:00:54Z</time></trkpt>
<trkpt lat="53.5603342" lon="9.99055">
<ele>8</ele>
<time>2026-04-20T05:01:15Z</time></trkpt>
<trkpt lat="53.5599598" lon="9.9902871">
<ele>8</ele>
<time>2026-04-20T05:01:55Z</time></trkpt>
<trkpt lat="53.5595838" lon="9.9900377">
<ele>8</ele>
<time>2026-04-20T05:02:36Z</time></trkpt>
<trkpt lat="53.5591791" lon="9.9897856">
<ele>8</ele>
<time>2026-04-20T05:03:19Z</time></trkpt>
<trkpt lat="53.5586915" lon="9.989512">
<ele>8</ele>
<time>2026-04-20T05:04:10Z</time></trkpt>
<trkpt lat="53.5583953" lon="9.9893349">
<ele>8</ele>
<time>2026-04-20T05:04:42Z</time></trkpt>
<trkpt lat="53.5583093" lon="9.9891579">
<ele>8</ele>
<time>2026-04-20T05:04:55Z</time></trkpt>
<trkpt lat="53.5583109" lon="9.9887905">
<ele>8</ele>
<time>2026-04-20T05:05:17Z</time></trkpt>
<trkpt lat="53.5582647" lon="9.9879912">
<ele>8</ele>
<time>2026-04-20T05:06:12Z</time></trkpt>
<trkpt lat="53.5582041" lon="9.9872267">
<ele>11</ele>
<time>2026-04-20T05:07:06Z</time></trkpt>
<trkpt lat="53.5581468" lon="9.9864623">
<ele>12</ele>
<time>2026-04-20T05:08:00Z</time></trkpt>
<trkpt lat="53.5580894" lon="9.9856979">
<ele>12</ele>
<time>2026-04-20T05:08:53Z</time></trkpt>
<trkpt lat="53.5580225" lon="9.9849308">
<ele>13</ele>
<time>2026-04-20T05:09:43Z</time></trkpt>
<trkpt lat="53.5578839" lon="9.9842227">
<ele>13</ele>
<time>2026-04-20T05:10:31Z</time></trkpt>
<trkpt lat="53.5577245" lon="9.9836487">
<ele>14</ele>
<time>2026-04-20T05:11:12Z</time></trkpt>
<trkpt lat="53.557527" lon="9.9830291">
<ele>14</ele>
<time>2026-04-20T05:12:00Z</time></trkpt>
<trkpt lat="53.5573071" lon="9.9823934">
<ele>16</ele>
<time>2026-04-20T05:12:51Z</time></trkpt>
<trkpt lat="53.5570537" lon="9.9818033">
<ele>16</ele>
<time>2026-04-20T05:13:40Z</time></trkpt>
<trkpt lat="53.556743" lon="9.9812078">
<ele>17</ele>
<time>2026-04-20T05:14:31Z</time></trkpt>
<trkpt lat="53.5563861" lon="9.9805829">
<ele>18</ele>
<time>2026-04-20T05:15:27Z</time></trkpt>
<trkpt lat="53.5560531" lon="9.979966">
<ele>18</ele>
<time>2026-04-20T05:16:18Z</time></trkpt>
<trkpt lat="53.5560038" lon="9.9796897">
<ele>18</ele>
<time>2026-04-20T05:16:35Z</time></trkpt>
<trkpt lat="53.5559831" lon="9.979459">
<ele>18</ele>
<time>2026-04-20T05:16:48Z</time></trkpt>
<trkpt lat="53.5560086" lon="9.9793303">
<ele>18</ele>
<time>2026-04-20T05:16:55Z</time></trkpt>
<trkpt lat="53.5562317" lon="9.9789843">
<ele>16</ele>
<time>2026-04-20T05:17:26Z</time></trkpt>
<trkpt lat="53.5564978" lon="9.9784774">
<ele>18</ele>
<time>2026-04-20T05:18:17Z</time></trkpt>
<trkpt lat="53.5567671" lon="9.9779731">
<ele>19</ele>
<time>2026-04-20T05:19:07Z</time></trkpt>
<trkpt lat="53.5570523" lon="9.977383">
<ele>20</ele>
<time>2026-04-20T05:19:56Z</time></trkpt>
<trkpt lat="53.5575383" lon="9.9768305">
<ele>19</ele>
<time>2026-04-20T05:20:56Z</time></trkpt>
<trkpt lat="53.5580338" lon="9.9762243">
<ele>19</ele>
<time>2026-04-20T05:21:56Z</time></trkpt>
<trkpt lat="53.5585293" lon="9.9756449">
<ele>18</ele>
<time>2026-04-20T05:22:54Z</time></trkpt>
<trkpt lat="53.5587905" lon="9.9755001">
<ele>17</ele>
<time>2026-04-20T05:23:21Z</time></trkpt>
<trkpt lat="53.5590853" lon="9.9754813">
<ele>17</ele>
<time>2026-04-20T05:23:50Z</time></trkpt>
<trkpt lat="53.5593832" lon="9.9754652">
<ele>17</ele>
<time>2026-04-20T05:24:19Z</time></trkpt>
<trkpt lat="53.5596811" lon="9.9754626">
<ele>16</ele>
<time>2026-04-20T05:24:48Z</time></trkpt>
<trkpt lat="53.5599838" lon="9.9754679">
<ele>16</ele>
<time>2026-04-20T05:25:17Z</time></trkpt>
<trkpt lat="53.560414" lon="9.9754688">
<ele>16</ele>
<time>2026-04-20T05:26:01Z</time></trkpt>
<trkpt lat="53.561053" lon="9.9755859">
<ele>17</ele>
<time>2026-04-20T05:27:11Z</time></trkpt>
</trkseg>
</trk>
</gpx>